Pinehurst, Massachusetts
Current Conditions -  °F | °C
As of 7:03 PM on Wednesday 22 Oct 2014 (Local Time) from KBED Reporting Station
Light Rain Light Rain  
Wind Chill: 42°   Ceiling: 900
Heat Index: 49°   Visibility: 3mi
Dew Point: 48°   Wind: 18mph
Humidity: 97%   Direction: 30°NNE
Pressure: 29.88"   Gusts: 31mph
Location:  42.53°N, 71.23°W
Report Text: KBED 222303Z 03016G27KT 3SM -RA BR BKN009 OVC014 09/09 A2988 RMK AO2 PK WND 05027/2257 CIG 006V011 P0000 T00940089
Loading
Personal Weather Stations






























Interactive Weather Map
Tropical Storm Tracking
New forecast layout! Learn more

10-Day Weather Forecast

Advertisements
Track Severe Weather on mobile